Terminal Aerodrome Forecast
Issued by NWS Wichita, KS

Home | Current Version | Previous Version | Graphics & Text | Print | Product List | Glossary On
Versions: 1 2 3 4 5 6 7 8 9 10 11 12 13 14 15 16 17
000
FTUS43 KICT 261737
TAFICT
TAF
KICT 261737Z 2618/2718 22006KT P6SM BKN200
     FM262000 29004KT P6SM FEW200
     FM270000 09004KT P6SM SKC
     FM271300 12006KT P6SM BKN070
     FM271500 14008KT P6SM BKN015=

USA.gov is the U.S. government's official web portal to all federal, state and local government web resources and services.